sensor_id;sensor_type;location;lat;lon;timestamp;P1;durP1;ratioP1;P2;durP2;ratioP2
53646;SDS011;39550;52.230;5.194;2023-02-28T00:02:19;5.22;;;2.72;;
53646;SDS011;39550;52.230;5.194;2023-02-28T00:04:45;4.95;;;2.55;;
53646;SDS011;39550;52.230;5.194;2023-02-28T00:07:17;5.60;;;2.78;;
53646;SDS011;39550;52.230;5.194;2023-02-28T00:09:46;6.82;;;3.30;;
53646;SDS011;39550;52.230;5.194;2023-02-28T00:12:11;5.18;;;2.90;;
53646;SDS011;39550;52.230;5.194;2023-02-28T00:14:40;4.50;;;2.60;;
53646;SDS011;39550;52.230;5.194;2023-02-28T00:17:05;5.47;;;2.88;;
53646;SDS011;39550;52.230;5.194;2023-02-28T00:19:31;5.75;;;2.90;;
53646;SDS011;39550;52.230;5.194;2023-02-28T00:21:56;4.53;;;2.35;;
53646;SDS011;39550;52.230;5.194;2023-02-28T00:24:22;6.43;;;2.80;;
53646;SDS011;39550;52.230;5.194;2023-02-28T00:26:47;4.97;;;2.60;;
53646;SDS011;39550;52.230;5.194;2023-02-28T00:29:12;3.85;;;2.22;;
53646;SDS011;39550;52.230;5.194;2023-02-28T00:31:38;5.68;;;2.60;;
53646;SDS011;39550;52.230;5.194;2023-02-28T00:34:03;5.28;;;2.58;;
53646;SDS011;39550;52.230;5.194;2023-02-28T00:36:28;6.03;;;2.90;;
53646;SDS011;39550;52.230;5.194;2023-02-28T00:38:54;4.40;;;2.45;;
53646;SDS011;39550;52.230;5.194;2023-02-28T00:41:19;4.30;;;2.50;;
53646;SDS011;39550;52.230;5.194;2023-02-28T00:43:45;6.15;;;2.70;;
53646;SDS011;39550;52.230;5.194;2023-02-28T00:46:10;5.18;;;2.50;;
53646;SDS011;39550;52.230;5.194;2023-02-28T00:48:36;4.35;;;2.30;;
53646;SDS011;39550;52.230;5.194;2023-02-28T00:51:01;4.68;;;2.47;;
53646;SDS011;39550;52.230;5.194;2023-02-28T00:53:27;4.40;;;2.33;;
53646;SDS011;39550;52.230;5.194;2023-02-28T00:55:53;5.32;;;2.75;;
53646;SDS011;39550;52.230;5.194;2023-02-28T00:58:18;4.15;;;2.40;;
53646;SDS011;39550;52.230;5.194;2023-02-28T01:00:44;5.45;;;2.80;;
53646;SDS011;39550;52.230;5.194;2023-02-28T01:03:13;4.97;;;2.55;;
53646;SDS011;39550;52.230;5.194;2023-02-28T01:05:40;4.93;;;2.63;;
53646;SDS011;39550;52.230;5.194;2023-02-28T01:08:06;6.15;;;2.38;;
53646;SDS011;39550;52.230;5.194;2023-02-28T01:10:31;6.22;;;2.50;;
53646;SDS011;39550;52.230;5.194;2023-02-28T01:12:57;5.07;;;2.78;;
53646;SDS011;39550;52.230;5.194;2023-02-28T01:15:23;3.75;;;2.20;;
53646;SDS011;39550;52.230;5.194;2023-02-28T01:17:49;6.05;;;2.47;;
53646;SDS011;39550;52.230;5.194;2023-02-28T01:20:14;4.45;;;2.30;;
53646;SDS011;39550;52.230;5.194;2023-02-28T01:22:40;4.63;;;2.53;;
53646;SDS011;39550;52.230;5.194;2023-02-28T01:25:05;5.78;;;2.17;;
53646;SDS011;39550;52.230;5.194;2023-02-28T01:27:31;6.45;;;2.72;;
53646;SDS011;39550;52.230;5.194;2023-02-28T01:29:56;4.35;;;2.50;;
53646;SDS011;39550;52.230;5.194;2023-02-28T01:32:22;5.60;;;2.40;;
53646;SDS011;39550;52.230;5.194;2023-02-28T01:34:47;4.60;;;2.33;;
53646;SDS011;39550;52.230;5.194;2023-02-28T01:37:12;4.10;;;2.40;;
53646;SDS011;39550;52.230;5.194;2023-02-28T01:39:38;4.25;;;2.30;;
53646;SDS011;39550;52.230;5.194;2023-02-28T01:42:03;4.15;;;2.53;;
53646;SDS011;39550;52.230;5.194;2023-02-28T01:47:41;4.80;;;2.30;;
53646;SDS011;39550;52.230;5.194;2023-02-28T01:50:16;4.88;;;2.60;;
53646;SDS011;39550;52.230;5.194;2023-02-28T01:52:45;4.97;;;2.55;;
53646;SDS011;39550;52.230;5.194;2023-02-28T01:55:12;5.85;;;3.05;;
53646;SDS011;39550;52.230;5.194;2023-02-28T01:57:41;5.45;;;2.85;;
53646;SDS011;39550;52.230;5.194;2023-02-28T02:00:12;4.25;;;2.20;;
53646;SDS011;39550;52.230;5.194;2023-02-28T02:02:41;5.93;;;2.75;;
53646;SDS011;39550;52.230;5.194;2023-02-28T02:07:42;4.32;;;2.35;;
53646;SDS011;39550;52.230;5.194;2023-02-28T02:10:14;4.20;;;2.20;;
53646;SDS011;39550;52.230;5.194;2023-02-28T02:12:49;4.78;;;2.22;;
53646;SDS011;39550;52.230;5.194;2023-02-28T02:18:30;4.35;;;2.30;;
53646;SDS011;39550;52.230;5.194;2023-02-28T02:24:03;3.75;;;2.30;;
53646;SDS011;39550;52.230;5.194;2023-02-28T02:35:22;6.20;;;2.60;;
53646;SDS011;39550;52.230;5.194;2023-02-28T02:37:59;4.95;;;2.40;;
53646;SDS011;39550;52.230;5.194;2023-02-28T02:40:50;4.20;;;2.25;;
53646;SDS011;39550;52.230;5.194;2023-02-28T02:43:36;4.47;;;2.50;;
53646;SDS011;39550;52.230;5.194;2023-02-28T02:46:19;5.10;;;2.30;;
53646;SDS011;39550;52.230;5.194;2023-02-28T02:48:49;4.57;;;2.40;;
53646;SDS011;39550;52.230;5.194;2023-02-28T02:51:17;4.68;;;2.45;;
53646;SDS011;39550;52.230;5.194;2023-02-28T02:53:49;4.75;;;2.50;;
53646;SDS011;39550;52.230;5.194;2023-02-28T02:56:25;4.82;;;2.40;;
53646;SDS011;39550;52.230;5.194;2023-02-28T02:58:59;5.38;;;2.30;;
53646;SDS011;39550;52.230;5.194;2023-02-28T03:01:29;4.95;;;2.30;;
53646;SDS011;39550;52.230;5.194;2023-02-28T03:03:57;4.43;;;2.30;;
53646;SDS011;39550;52.230;5.194;2023-02-28T03:06:27;5.65;;;2.80;;
53646;SDS011;39550;52.230;5.194;2023-02-28T03:08:53;5.40;;;2.38;;
53646;SDS011;39550;52.230;5.194;2023-02-28T03:11:19;5.30;;;2.38;;
53646;SDS011;39550;52.230;5.194;2023-02-28T03:19:13;5.43;;;2.75;;
53646;SDS011;39550;52.230;5.194;2023-02-28T03:27:36;4.45;;;2.60;;
53646;SDS011;39550;52.230;5.194;2023-02-28T03:30:25;4.13;;;2.25;;
53646;SDS011;39550;52.230;5.194;2023-02-28T03:32:55;4.93;;;2.80;;
53646;SDS011;39550;52.230;5.194;2023-02-28T03:35:32;5.07;;;2.50;;
53646;SDS011;39550;52.230;5.194;2023-02-28T03:41:05;4.78;;;2.65;;
53646;SDS011;39550;52.230;5.194;2023-02-28T03:43:32;5.03;;;2.50;;
53646;SDS011;39550;52.230;5.194;2023-02-28T03:46:01;5.53;;;2.63;;
53646;SDS011;39550;52.230;5.194;2023-02-28T03:48:34;4.72;;;2.30;;
53646;SDS011;39550;52.230;5.194;2023-02-28T03:51:02;4.90;;;2.63;;
53646;SDS011;39550;52.230;5.194;2023-02-28T03:53:34;6.03;;;2.63;;
53646;SDS011;39550;52.230;5.194;2023-02-28T03:56:07;5.10;;;2.55;;
53646;SDS011;39550;52.230;5.194;2023-02-28T03:58:37;4.85;;;2.70;;
53646;SDS011;39550;52.230;5.194;2023-02-28T04:01:10;4.22;;;2.33;;
53646;SDS011;39550;52.230;5.194;2023-02-28T04:03:40;5.07;;;2.78;;
53646;SDS011;39550;52.230;5.194;2023-02-28T04:06:07;5.07;;;2.75;;
53646;SDS011;39550;52.230;5.194;2023-02-28T04:08:37;5.20;;;2.55;;
53646;SDS011;39550;52.230;5.194;2023-02-28T04:16:11;5.00;;;2.70;;
53646;SDS011;39550;52.230;5.194;2023-02-28T04:18:40;5.50;;;2.83;;
53646;SDS011;39550;52.230;5.194;2023-02-28T04:21:08;4.88;;;2.92;;
53646;SDS011;39550;52.230;5.194;2023-02-28T04:23:34;5.50;;;2.95;;
53646;SDS011;39550;52.230;5.194;2023-02-28T04:25:59;5.35;;;2.80;;
53646;SDS011;39550;52.230;5.194;2023-02-28T04:28:25;4.57;;;2.78;;
53646;SDS011;39550;52.230;5.194;2023-02-28T04:31:02;5.97;;;3.00;;
53646;SDS011;39550;52.230;5.194;2023-02-28T04:33:29;5.88;;;2.88;;
53646;SDS011;39550;52.230;5.194;2023-02-28T04:36:01;5.35;;;2.83;;
53646;SDS011;39550;52.230;5.194;2023-02-28T04:38:29;5.82;;;3.10;;
53646;SDS011;39550;52.230;5.194;2023-02-28T04:40:57;6.50;;;2.90;;
53646;SDS011;39550;52.230;5.194;2023-02-28T04:43:24;5.30;;;2.95;;
53646;SDS011;39550;52.230;5.194;2023-02-28T04:45:51;5.13;;;3.10;;
53646;SDS011;39550;52.230;5.194;2023-02-28T04:48:19;5.15;;;2.53;;
53646;SDS011;39550;52.230;5.194;2023-02-28T04:50:45;5.75;;;3.05;;
53646;SDS011;39550;52.230;5.194;2023-02-28T04:53:10;6.78;;;3.17;;
53646;SDS011;39550;52.230;5.194;2023-02-28T04:55:36;5.55;;;3.15;;
53646;SDS011;39550;52.230;5.194;2023-02-28T04:58:01;5.90;;;2.90;;
53646;SDS011;39550;52.230;5.194;2023-02-28T05:00:27;4.57;;;3.00;;
53646;SDS011;39550;52.230;5.194;2023-02-28T05:02:52;6.28;;;3.63;;
53646;SDS011;39550;52.230;5.194;2023-02-28T05:05:17;6.97;;;3.55;;
53646;SDS011;39550;52.230;5.194;2023-02-28T05:07:44;6.78;;;3.63;;
53646;SDS011;39550;52.230;5.194;2023-02-28T05:10:10;5.45;;;3.42;;
53646;SDS011;39550;52.230;5.194;2023-02-28T05:12:36;5.65;;;3.53;;
53646;SDS011;39550;52.230;5.194;2023-02-28T05:15:01;6.80;;;3.60;;
53646;SDS011;39550;52.230;5.194;2023-02-28T05:17:28;4.95;;;3.20;;
53646;SDS011;39550;52.230;5.194;2023-02-28T05:19:53;7.60;;;3.85;;
53646;SDS011;39550;52.230;5.194;2023-02-28T05:22:19;6.25;;;3.65;;
53646;SDS011;39550;52.230;5.194;2023-02-28T05:24:44;6.85;;;3.60;;
53646;SDS011;39550;52.230;5.194;2023-02-28T05:27:10;5.45;;;3.83;;
53646;SDS011;39550;52.230;5.194;2023-02-28T05:29:35;5.80;;;3.30;;
53646;SDS011;39550;52.230;5.194;2023-02-28T05:32:06;5.68;;;3.65;;
53646;SDS011;39550;52.230;5.194;2023-02-28T05:34:36;5.53;;;3.40;;
53646;SDS011;39550;52.230;5.194;2023-02-28T05:37:05;6.72;;;3.72;;
53646;SDS011;39550;52.230;5.194;2023-02-28T05:39:31;6.47;;;3.90;;
53646;SDS011;39550;52.230;5.194;2023-02-28T05:41:58;6.65;;;3.80;;
53646;SDS011;39550;52.230;5.194;2023-02-28T05:44:23;6.37;;;3.63;;
53646;SDS011;39550;52.230;5.194;2023-02-28T05:46:49;7.00;;;3.58;;
53646;SDS011;39550;52.230;5.194;2023-02-28T05:49:14;8.07;;;3.67;;
53646;SDS011;39550;52.230;5.194;2023-02-28T05:51:40;5.57;;;3.75;;
53646;SDS011;39550;52.230;5.194;2023-02-28T05:54:05;5.72;;;3.65;;
53646;SDS011;39550;52.230;5.194;2023-02-28T05:56:31;5.60;;;3.45;;
53646;SDS011;39550;52.230;5.194;2023-02-28T05:58:59;5.95;;;3.40;;
53646;SDS011;39550;52.230;5.194;2023-02-28T06:01:30;6.75;;;3.63;;
53646;SDS011;39550;52.230;5.194;2023-02-28T06:04:03;5.97;;;4.10;;
53646;SDS011;39550;52.230;5.194;2023-02-28T06:06:30;5.65;;;3.53;;
53646;SDS011;39550;52.230;5.194;2023-02-28T06:08:56;7.00;;;3.67;;
53646;SDS011;39550;52.230;5.194;2023-02-28T06:11:22;6.38;;;3.75;;
53646;SDS011;39550;52.230;5.194;2023-02-28T06:13:53;9.13;;;5.15;;
53646;SDS011;39550;52.230;5.194;2023-02-28T06:16:19;5.82;;;3.65;;
53646;SDS011;39550;52.230;5.194;2023-02-28T06:18:44;6.40;;;4.00;;
53646;SDS011;39550;52.230;5.194;2023-02-28T06:21:10;6.70;;;3.33;;
53646;SDS011;39550;52.230;5.194;2023-02-28T06:23:37;5.68;;;3.40;;
53646;SDS011;39550;52.230;5.194;2023-02-28T06:26:03;5.45;;;3.60;;
53646;SDS011;39550;52.230;5.194;2023-02-28T06:28:28;5.75;;;3.63;;
53646;SDS011;39550;52.230;5.194;2023-02-28T06:30:53;7.00;;;3.85;;
53646;SDS011;39550;52.230;5.194;2023-02-28T06:33:19;5.68;;;3.38;;
53646;SDS011;39550;52.230;5.194;2023-02-28T06:35:46;8.48;;;3.85;;
53646;SDS011;39550;52.230;5.194;2023-02-28T06:38:12;6.22;;;3.85;;
53646;SDS011;39550;52.230;5.194;2023-02-28T06:40:37;5.57;;;3.45;;
53646;SDS011;39550;52.230;5.194;2023-02-28T06:43:03;5.82;;;3.65;;
53646;SDS011;39550;52.230;5.194;2023-02-28T06:45:28;5.07;;;3.42;;
53646;SDS011;39550;52.230;5.194;2023-02-28T06:47:54;5.38;;;3.58;;
53646;SDS011;39550;52.230;5.194;2023-02-28T06:50:20;6.97;;;3.50;;
53646;SDS011;39550;52.230;5.194;2023-02-28T06:52:45;5.45;;;3.28;;
53646;SDS011;39550;52.230;5.194;2023-02-28T06:55:11;5.43;;;3.25;;
53646;SDS011;39550;52.230;5.194;2023-02-28T06:57:37;6.20;;;3.63;;
53646;SDS011;39550;52.230;5.194;2023-02-28T07:00:04;6.15;;;3.58;;
53646;SDS011;39550;52.230;5.194;2023-02-28T07:02:32;5.10;;;3.13;;
53646;SDS011;39550;52.230;5.194;2023-02-28T07:04:58;5.45;;;3.60;;
53646;SDS011;39550;52.230;5.194;2023-02-28T07:07:23;6.20;;;3.50;;
53646;SDS011;39550;52.230;5.194;2023-02-28T07:09:49;6.07;;;3.50;;
53646;SDS011;39550;52.230;5.194;2023-02-28T07:12:14;5.88;;;3.30;;
53646;SDS011;39550;52.230;5.194;2023-02-28T07:14:39;6.50;;;3.20;;
53646;SDS011;39550;52.230;5.194;2023-02-28T07:17:06;5.68;;;3.45;;
53646;SDS011;39550;52.230;5.194;2023-02-28T07:19:32;5.68;;;3.30;;
53646;SDS011;39550;52.230;5.194;2023-02-28T07:21:58;6.75;;;3.78;;
53646;SDS011;39550;52.230;5.194;2023-02-28T07:24:23;5.03;;;3.10;;
53646;SDS011;39550;52.230;5.194;2023-02-28T07:26:53;6.80;;;3.50;;
53646;SDS011;39550;52.230;5.194;2023-02-28T07:29:18;5.90;;;3.38;;
53646;SDS011;39550;52.230;5.194;2023-02-28T07:31:43;7.18;;;3.63;;
53646;SDS011;39550;52.230;5.194;2023-02-28T07:34:09;5.68;;;3.30;;
53646;SDS011;39550;52.230;5.194;2023-02-28T07:36:34;5.53;;;3.42;;
53646;SDS011;39550;52.230;5.194;2023-02-28T07:38:59;6.55;;;3.80;;
53646;SDS011;39550;52.230;5.194;2023-02-28T07:41:25;6.10;;;3.75;;
53646;SDS011;39550;52.230;5.194;2023-02-28T07:43:55;6.80;;;3.88;;
53646;SDS011;39550;52.230;5.194;2023-02-28T07:48:47;7.45;;;3.90;;
53646;SDS011;39550;52.230;5.194;2023-02-28T07:51:13;5.80;;;3.40;;
53646;SDS011;39550;52.230;5.194;2023-02-28T07:53:38;5.45;;;3.53;;
53646;SDS011;39550;52.230;5.194;2023-02-28T07:56:04;6.03;;;4.10;;
53646;SDS011;39550;52.230;5.194;2023-02-28T07:58:30;9.32;;;4.18;;
53646;SDS011;39550;52.230;5.194;2023-02-28T08:00:56;6.20;;;3.72;;
53646;SDS011;39550;52.230;5.194;2023-02-28T08:03:22;6.80;;;3.80;;
53646;SDS011;39550;52.230;5.194;2023-02-28T08:05:48;5.82;;;3.72;;
53646;SDS011;39550;52.230;5.194;2023-02-28T08:08:15;6.20;;;3.90;;
53646;SDS011;39550;52.230;5.194;2023-02-28T08:10:41;6.97;;;3.75;;
53646;SDS011;39550;52.230;5.194;2023-02-28T08:13:07;5.80;;;3.67;;
53646;SDS011;39550;52.230;5.194;2023-02-28T08:15:32;5.85;;;3.50;;
53646;SDS011;39550;52.230;5.194;2023-02-28T08:17:58;5.55;;;3.67;;
53646;SDS011;39550;52.230;5.194;2023-02-28T08:20:24;5.22;;;3.67;;
53646;SDS011;39550;52.230;5.194;2023-02-28T08:22:50;6.03;;;3.70;;
53646;SDS011;39550;52.230;5.194;2023-02-28T08:25:16;6.22;;;3.97;;
53646;SDS011;39550;52.230;5.194;2023-02-28T08:27:41;6.78;;;3.95;;
53646;SDS011;39550;52.230;5.194;2023-02-28T08:30:07;6.25;;;3.92;;
53646;SDS011;39550;52.230;5.194;2023-02-28T08:32:34;5.35;;;3.65;;
53646;SDS011;39550;52.230;5.194;2023-02-28T08:35:00;5.55;;;3.30;;
53646;SDS011;39550;52.230;5.194;2023-02-28T08:37:25;5.78;;;3.55;;
53646;SDS011;39550;52.230;5.194;2023-02-28T08:39:51;4.90;;;3.45;;
53646;SDS011;39550;52.230;5.194;2023-02-28T08:42:16;6.20;;;3.55;;
53646;SDS011;39550;52.230;5.194;2023-02-28T08:44:41;5.97;;;3.90;;
53646;SDS011;39550;52.230;5.194;2023-02-28T08:47:07;6.65;;;3.63;;
53646;SDS011;39550;52.230;5.194;2023-02-28T08:49:32;6.65;;;4.25;;
53646;SDS011;39550;52.230;5.194;2023-02-28T08:51:58;8.13;;;3.60;;
53646;SDS011;39550;52.230;5.194;2023-02-28T08:54:23;6.70;;;4.25;;
53646;SDS011;39550;52.230;5.194;2023-02-28T08:56:49;5.60;;;3.67;;
53646;SDS011;39550;52.230;5.194;2023-02-28T08:59:15;5.85;;;3.50;;
53646;SDS011;39550;52.230;5.194;2023-02-28T09:01:40;5.47;;;3.50;;
53646;SDS011;39550;52.230;5.194;2023-02-28T09:04:08;5.43;;;3.33;;
53646;SDS011;39550;52.230;5.194;2023-02-28T09:06:34;6.20;;;3.83;;
53646;SDS011;39550;52.230;5.194;2023-02-28T09:09:00;6.18;;;3.70;;
53646;SDS011;39550;52.230;5.194;2023-02-28T09:11:26;5.25;;;3.92;;
53646;SDS011;39550;52.230;5.194;2023-02-28T09:13:52;6.60;;;3.67;;
53646;SDS011;39550;52.230;5.194;2023-02-28T09:16:17;7.75;;;3.67;;
53646;SDS011;39550;52.230;5.194;2023-02-28T09:18:43;5.80;;;3.95;;
53646;SDS011;39550;52.230;5.194;2023-02-28T09:21:10;6.10;;;3.90;;
53646;SDS011;39550;52.230;5.194;2023-02-28T09:23:39;6.63;;;3.83;;
53646;SDS011;39550;52.230;5.194;2023-02-28T09:28:33;5.45;;;3.83;;
53646;SDS011;39550;52.230;5.194;2023-02-28T09:30:59;6.43;;;3.38;;
53646;SDS011;39550;52.230;5.194;2023-02-28T09:33:24;5.10;;;3.50;;
53646;SDS011;39550;52.230;5.194;2023-02-28T09:35:53;6.55;;;3.85;;
53646;SDS011;39550;52.230;5.194;2023-02-28T09:38:23;6.38;;;4.30;;
53646;SDS011;39550;52.230;5.194;2023-02-28T09:40:49;5.85;;;3.83;;
53646;SDS011;39550;52.230;5.194;2023-02-28T09:43:17;5.80;;;3.72;;
53646;SDS011;39550;52.230;5.194;2023-02-28T09:45:49;5.20;;;3.20;;
53646;SDS011;39550;52.230;5.194;2023-02-28T09:48:24;6.07;;;3.95;;
53646;SDS011;39550;52.230;5.194;2023-02-28T09:51:00;7.15;;;3.63;;
53646;SDS011;39550;52.230;5.194;2023-02-28T09:53:29;5.53;;;3.85;;
53646;SDS011;39550;52.230;5.194;2023-02-28T09:58:35;6.05;;;3.50;;
53646;SDS011;39550;52.230;5.194;2023-02-28T10:01:12;5.82;;;3.40;;
53646;SDS011;39550;52.230;5.194;2023-02-28T10:04:23;5.80;;;3.38;;
53646;SDS011;39550;52.230;5.194;2023-02-28T10:07:01;5.40;;;3.78;;
53646;SDS011;39550;52.230;5.194;2023-02-28T10:09:44;5.68;;;3.35;;
53646;SDS011;39550;52.230;5.194;2023-02-28T10:12:17;5.88;;;4.35;;
53646;SDS011;39550;52.230;5.194;2023-02-28T10:14:45;4.95;;;3.50;;
53646;SDS011;39550;52.230;5.194;2023-02-28T10:17:15;5.22;;;3.53;;
53646;SDS011;39550;52.230;5.194;2023-02-28T10:22:44;6.18;;;3.78;;
53646;SDS011;39550;52.230;5.194;2023-02-28T10:25:19;5.47;;;3.65;;
53646;SDS011;39550;52.230;5.194;2023-02-28T10:27:46;6.68;;;4.05;;
53646;SDS011;39550;52.230;5.194;2023-02-28T10:30:12;5.65;;;3.65;;
53646;SDS011;39550;52.230;5.194;2023-02-28T10:32:38;5.85;;;3.38;;
53646;SDS011;39550;52.230;5.194;2023-02-28T10:37:47;6.43;;;4.27;;
53646;SDS011;39550;52.230;5.194;2023-02-28T10:45:25;4.60;;;3.00;;
53646;SDS011;39550;52.230;5.194;2023-02-28T10:51:02;5.07;;;3.30;;
53646;SDS011;39550;52.230;5.194;2023-02-28T10:58:44;5.55;;;3.30;;
53646;SDS011;39550;52.230;5.194;2023-02-28T11:03:54;5.78;;;3.28;;
53646;SDS011;39550;52.230;5.194;2023-02-28T11:06:25;5.13;;;3.00;;
53646;SDS011;39550;52.230;5.194;2023-02-28T11:08:57;4.45;;;2.97;;
53646;SDS011;39550;52.230;5.194;2023-02-28T11:11:25;5.45;;;3.22;;
53646;SDS011;39550;52.230;5.194;2023-02-28T11:13:53;4.35;;;3.00;;
53646;SDS011;39550;52.230;5.194;2023-02-28T11:16:21;4.63;;;3.10;;
53646;SDS011;39550;52.230;5.194;2023-02-28T11:18:59;5.60;;;3.28;;
53646;SDS011;39550;52.230;5.194;2023-02-28T11:21:30;5.32;;;3.35;;
53646;SDS011;39550;52.230;5.194;2023-02-28T11:24:06;4.90;;;2.90;;
53646;SDS011;39550;52.230;5.194;2023-02-28T11:26:45;4.75;;;3.28;;
53646;SDS011;39550;52.230;5.194;2023-02-28T11:32:02;5.13;;;3.00;;
53646;SDS011;39550;52.230;5.194;2023-02-28T11:34:28;4.47;;;2.90;;
53646;SDS011;39550;52.230;5.194;2023-02-28T11:36:56;5.78;;;3.10;;
53646;SDS011;39550;52.230;5.194;2023-02-28T11:39:30;5.03;;;3.15;;
53646;SDS011;39550;52.230;5.194;2023-02-28T11:53:04;6.93;;;3.40;;
53646;SDS011;39550;52.230;5.194;2023-02-28T11:55:32;5.40;;;3.00;;
53646;SDS011;39550;52.230;5.194;2023-02-28T11:58:09;4.32;;;3.00;;
53646;SDS011;39550;52.230;5.194;2023-02-28T12:03:34;4.40;;;2.83;;
53646;SDS011;39550;52.230;5.194;2023-02-28T12:11:55;5.22;;;3.15;;
53646;SDS011;39550;52.230;5.194;2023-02-28T12:19:47;4.50;;;2.90;;
53646;SDS011;39550;52.230;5.194;2023-02-28T12:27:43;4.18;;;2.72;;
53646;SDS011;39550;52.230;5.194;2023-02-28T12:30:16;4.60;;;2.80;;
53646;SDS011;39550;52.230;5.194;2023-02-28T12:32:53;4.22;;;2.78;;
53646;SDS011;39550;52.230;5.194;2023-02-28T12:35:25;4.38;;;2.70;;
53646;SDS011;39550;52.230;5.194;2023-02-28T12:37:59;6.30;;;3.17;;
53646;SDS011;39550;52.230;5.194;2023-02-28T12:40:45;5.45;;;2.90;;
53646;SDS011;39550;52.230;5.194;2023-02-28T12:43:16;4.47;;;2.72;;
53646;SDS011;39550;52.230;5.194;2023-02-28T12:48:20;5.15;;;3.08;;
53646;SDS011;39550;52.230;5.194;2023-02-28T12:50:50;5.10;;;3.10;;
53646;SDS011;39550;52.230;5.194;2023-02-28T12:56:34;4.82;;;2.75;;
53646;SDS011;39550;52.230;5.194;2023-02-28T13:01:57;4.88;;;3.00;;
53646;SDS011;39550;52.230;5.194;2023-02-28T13:07:45;4.82;;;2.95;;
53646;SDS011;39550;52.230;5.194;2023-02-28T13:10:14;5.18;;;3.10;;
53646;SDS011;39550;52.230;5.194;2023-02-28T13:12:47;5.65;;;3.00;;
53646;SDS011;39550;52.230;5.194;2023-02-28T13:15:18;5.60;;;3.05;;
53646;SDS011;39550;52.230;5.194;2023-02-28T13:17:51;4.28;;;2.80;;
53646;SDS011;39550;52.230;5.194;2023-02-28T13:20:33;4.43;;;2.80;;
53646;SDS011;39550;52.230;5.194;2023-02-28T13:26:08;4.70;;;3.20;;
53646;SDS011;39550;52.230;5.194;2023-02-28T13:32:18;5.32;;;2.90;;
53646;SDS011;39550;52.230;5.194;2023-02-28T13:37:54;4.68;;;3.00;;
53646;SDS011;39550;52.230;5.194;2023-02-28T13:51:37;4.18;;;2.80;;
53646;SDS011;39550;52.230;5.194;2023-02-28T13:57:53;5.10;;;2.55;;
53646;SDS011;39550;52.230;5.194;2023-02-28T14:01:06;5.38;;;3.25;;
53646;SDS011;39550;52.230;5.194;2023-02-28T14:06:27;4.28;;;2.80;;
53646;SDS011;39550;52.230;5.194;2023-02-28T14:08:56;4.68;;;2.75;;
53646;SDS011;39550;52.230;5.194;2023-02-28T14:11:34;4.80;;;2.67;;
53646;SDS011;39550;52.230;5.194;2023-02-28T14:14:04;4.95;;;3.08;;
53646;SDS011;39550;52.230;5.194;2023-02-28T14:16:44;4.72;;;2.60;;
53646;SDS011;39550;52.230;5.194;2023-02-28T14:19:22;4.88;;;2.60;;
53646;SDS011;39550;52.230;5.194;2023-02-28T14:31:01;4.45;;;3.00;;
53646;SDS011;39550;52.230;5.194;2023-02-28T14:36:32;4.13;;;2.78;;
53646;SDS011;39550;52.230;5.194;2023-02-28T14:39:07;4.20;;;2.60;;
53646;SDS011;39550;52.230;5.194;2023-02-28T14:41:42;4.22;;;2.78;;
53646;SDS011;39550;52.230;5.194;2023-02-28T14:46:40;4.78;;;2.60;;
53646;SDS011;39550;52.230;5.194;2023-02-28T14:49:20;4.93;;;3.00;;
53646;SDS011;39550;52.230;5.194;2023-02-28T14:52:06;4.65;;;3.00;;
53646;SDS011;39550;52.230;5.194;2023-02-28T14:54:42;5.22;;;2.92;;
53646;SDS011;39550;52.230;5.194;2023-02-28T14:57:28;5.63;;;3.00;;
53646;SDS011;39550;52.230;5.194;2023-02-28T15:03:01;4.70;;;3.15;;
53646;SDS011;39550;52.230;5.194;2023-02-28T15:05:51;4.38;;;2.95;;
53646;SDS011;39550;52.230;5.194;2023-02-28T15:08:18;5.32;;;2.78;;
53646;SDS011;39550;52.230;5.194;2023-02-28T15:13:39;4.60;;;2.80;;
53646;SDS011;39550;52.230;5.194;2023-02-28T15:16:13;4.50;;;2.90;;
53646;SDS011;39550;52.230;5.194;2023-02-28T15:21:35;4.20;;;2.60;;
53646;SDS011;39550;52.230;5.194;2023-02-28T15:24:05;4.93;;;3.10;;
53646;SDS011;39550;52.230;5.194;2023-02-28T15:26:39;4.03;;;2.75;;
53646;SDS011;39550;52.230;5.194;2023-02-28T15:29:11;4.40;;;2.88;;
53646;SDS011;39550;52.230;5.194;2023-02-28T15:31:50;4.55;;;2.90;;
53646;SDS011;39550;52.230;5.194;2023-02-28T15:40:10;5.22;;;2.85;;
53646;SDS011;39550;52.230;5.194;2023-02-28T15:42:38;5.13;;;3.10;;
53646;SDS011;39550;52.230;5.194;2023-02-28T15:45:03;4.40;;;2.78;;
53646;SDS011;39550;52.230;5.194;2023-02-28T15:47:29;5.78;;;3.08;;
53646;SDS011;39550;52.230;5.194;2023-02-28T15:49:56;4.25;;;2.70;;
53646;SDS011;39550;52.230;5.194;2023-02-28T15:52:28;6.28;;;3.50;;
53646;SDS011;39550;52.230;5.194;2023-02-28T15:54:59;4.53;;;3.00;;
53646;SDS011;39550;52.230;5.194;2023-02-28T15:57:33;4.78;;;3.13;;
53646;SDS011;39550;52.230;5.194;2023-02-28T16:00:00;6.05;;;3.20;;
53646;SDS011;39550;52.230;5.194;2023-02-28T16:02:33;4.70;;;2.90;;
53646;SDS011;39550;52.230;5.194;2023-02-28T16:07:31;4.93;;;2.97;;
53646;SDS011;39550;52.230;5.194;2023-02-28T16:09:57;4.70;;;2.90;;
53646;SDS011;39550;52.230;5.194;2023-02-28T16:12:24;5.28;;;3.10;;
53646;SDS011;39550;52.230;5.194;2023-02-28T16:14:52;5.40;;;3.33;;
53646;SDS011;39550;52.230;5.194;2023-02-28T16:17:26;4.60;;;3.13;;
53646;SDS011;39550;52.230;5.194;2023-02-28T16:19:53;4.72;;;2.97;;
53646;SDS011;39550;52.230;5.194;2023-02-28T16:22:19;4.72;;;3.00;;
53646;SDS011;39550;52.230;5.194;2023-02-28T16:24:44;7.85;;;2.90;;
53646;SDS011;39550;52.230;5.194;2023-02-28T16:27:14;5.13;;;2.90;;
53646;SDS011;39550;52.230;5.194;2023-02-28T16:29:43;5.38;;;3.20;;
53646;SDS011;39550;52.230;5.194;2023-02-28T16:32:10;5.38;;;3.00;;
53646;SDS011;39550;52.230;5.194;2023-02-28T16:34:38;5.03;;;3.13;;
53646;SDS011;39550;52.230;5.194;2023-02-28T16:37:04;5.63;;;3.08;;
53646;SDS011;39550;52.230;5.194;2023-02-28T16:39:35;4.90;;;3.13;;
53646;SDS011;39550;52.230;5.194;2023-02-28T16:42:00;5.50;;;3.33;;
53646;SDS011;39550;52.230;5.194;2023-02-28T16:44:33;5.07;;;3.28;;
53646;SDS011;39550;52.230;5.194;2023-02-28T16:47:00;4.50;;;3.20;;
53646;SDS011;39550;52.230;5.194;2023-02-28T16:49:27;5.15;;;3.33;;
53646;SDS011;39550;52.230;5.194;2023-02-28T16:51:52;4.95;;;3.08;;
53646;SDS011;39550;52.230;5.194;2023-02-28T16:54:17;5.00;;;3.10;;
53646;SDS011;39550;52.230;5.194;2023-02-28T16:56:44;5.13;;;3.10;;
53646;SDS011;39550;52.230;5.194;2023-02-28T16:59:10;4.30;;;3.20;;
53646;SDS011;39550;52.230;5.194;2023-02-28T17:01:36;5.60;;;3.22;;
53646;SDS011;39550;52.230;5.194;2023-02-28T17:04:02;4.97;;;3.10;;
53646;SDS011;39550;52.230;5.194;2023-02-28T17:06:27;4.35;;;3.10;;
53646;SDS011;39550;52.230;5.194;2023-02-28T17:08:54;4.70;;;3.30;;
53646;SDS011;39550;52.230;5.194;2023-02-28T17:11:21;5.55;;;3.33;;
53646;SDS011;39550;52.230;5.194;2023-02-28T17:13:47;4.70;;;2.92;;
53646;SDS011;39550;52.230;5.194;2023-02-28T17:16:14;5.25;;;3.40;;
53646;SDS011;39550;52.230;5.194;2023-02-28T17:18:47;6.78;;;3.40;;
53646;SDS011;39550;52.230;5.194;2023-02-28T17:21:13;6.10;;;3.10;;
53646;SDS011;39550;52.230;5.194;2023-02-28T17:23:40;4.60;;;2.97;;
53646;SDS011;39550;52.230;5.194;2023-02-28T17:26:06;6.53;;;3.08;;
53646;SDS011;39550;52.230;5.194;2023-02-28T17:28:31;5.75;;;3.25;;
53646;SDS011;39550;52.230;5.194;2023-02-28T17:30:57;5.22;;;3.00;;
53646;SDS011;39550;52.230;5.194;2023-02-28T17:33:23;7.65;;;3.40;;
53646;SDS011;39550;52.230;5.194;2023-02-28T17:35:48;5.28;;;3.28;;
53646;SDS011;39550;52.230;5.194;2023-02-28T17:38:15;7.20;;;3.42;;
53646;SDS011;39550;52.230;5.194;2023-02-28T17:40:42;7.15;;;3.42;;
53646;SDS011;39550;52.230;5.194;2023-02-28T17:43:07;4.63;;;3.28;;
53646;SDS011;39550;52.230;5.194;2023-02-28T17:55:47;5.80;;;3.60;;
53646;SDS011;39550;52.230;5.194;2023-02-28T17:58:12;6.25;;;3.80;;
53646;SDS011;39550;52.230;5.194;2023-02-28T18:00:37;5.78;;;3.63;;
53646;SDS011;39550;52.230;5.194;2023-02-28T18:03:03;6.38;;;3.60;;